Time;durP1;ratioP1;P1;durP2;ratioP2;P2;SDS_P1;SDS_P2;PMS_P1;PMS_P2;Temp;Humidity;BMP_temperature;BMP_pressure;BME280_temperature;BME280_humidity;BME280_pressure;Samples;Min_cycle;Max_cycle;Signal;HPM_P1;HPM_P2
2022/08/28 00:01:06;;;;;;;;;;;;;;;28.62;64.95;100723.78;5083450;27;70979;-32
2022/08/28 00:03:38;;;;;;;;;;;;;;;28.68;64.89;100728.34;5084663;27;67321;-31
2022/08/28 00:06:11;;;;;;;;;;;;;;;28.71;64.82;100736.03;5086462;27;70424;-32
2022/08/28 00:08:43;;;;;;;;;;;;;;;28.74;65.22;100736.44;5075119;27;67173;-32
2022/08/28 00:11:15;;;;;;;;;;;;;;;28.78;65.17;100736.84;5083652;27;70532;-32
2022/08/28 00:13:47;;;;;;;;;;;;;;;28.81;64.88;100741.84;5062436;28;67035;-32
2022/08/28 00:16:19;;;;;;;;;;;;;;;28.84;65.70;100746.81;5078970;27;70880;-32
2022/08/28 00:18:55;;;;;;;;;;;;;;;28.90;65.35;100756.78;5080986;27;66425;-30
2022/08/28 00:21:28;;;;;;;;;;;;;;;28.94;65.01;100760.69;5079653;27;69974;-31
2022/08/28 00:24:00;;;;;;;;;;;;;;;28.96;65.10;100758.63;5083113;27;67065;-31
2022/08/28 00:29:23;;;;;;;;;;;;;;;28.99;65.27;100753.84;5085063;27;67011;-31
2022/08/28 00:31:55;;;;;;;;;;;;;;;29.01;65.25;100763.41;5078381;27;70237;-32
2022/08/28 00:34:27;;;;;;;;;;;;;;;29.03;65.88;100760.47;5034598;28;65999;-31
2022/08/28 00:37:02;;;;;;;;;;;;;;;29.05;66.44;100769.25;5083615;27;71089;-31
2022/08/28 00:39:34;;;;;;;;;;;;;;;29.07;66.17;100777.97;5087147;27;66642;-32
2022/08/28 00:42:07;;;;;;;;;;;;;;;29.15;64.93;100780.44;5082449;27;71183;-33
2022/08/28 00:44:38;;;;;;;;;;;;;;;29.26;65.43;100793.31;5088734;27;67118;-32
2022/08/28 00:47:10;;;;;;;;;;;;;;;29.34;65.01;100794.94;5043151;27;70878;-34
2022/08/28 00:49:48;;;;;;;;;;;;;;;29.42;64.69;100801.97;5085504;27;66914;-37
2022/08/28 00:52:23;;;;;;;;;;;;;;;29.48;65.17;100807.38;5068807;28;69878;-32
2022/08/28 00:55:04;;;;;;;;;;;;;;;29.51;65.66;100798.03;5074624;27;67202;-32
2022/08/28 00:57:39;;;;;;;;;;;;;;;29.57;65.35;100802.56;5069245;27;70654;-32
2022/08/28 01:00:13;;;;;;;;;;;;;;;29.62;64.05;100809.00;5082412;27;66557;-35
2022/08/28 01:02:45;;;;;;;;;;;;;;;29.67;64.28;100810.25;5080554;27;71124;-34
2022/08/28 01:05:18;;;;;;;;;;;;;;;29.68;64.26;100807.34;5090492;27;67422;-30
2022/08/28 01:07:50;;;;;;;;;;;;;;;29.73;64.75;100809.41;5084427;27;69774;-31
2022/08/28 01:10:24;;;;;;;;;;;;;;;29.74;64.23;100808.34;5077728;27;66367;-31
2022/08/28 01:12:57;;;;;;;;;;;;;;;29.75;64.60;100802.72;5082191;27;70113;-32
2022/08/28 01:15:34;;;;;;;;;;;;;;;29.77;64.52;100807.91;5085517;27;65999;-32
2022/08/28 01:18:08;;;;;;;;;;;;;;;29.80;64.81;100805.59;5085763;27;70268;-32
2022/08/28 01:20:45;;;;;;;;;;;;;;;29.86;66.15;100805.81;5058453;27;67631;-31
2022/08/28 01:23:17;;;;;;;;;;;;;;;29.96;65.84;100808.88;5069073;27;70937;-30
2022/08/28 01:25:51;;;;;;;;;;;;;;;30.04;68.10;100808.63;5087237;27;66091;-33
2022/08/28 01:28:23;;;;;;;;;;;;;;;30.11;67.81;100812.13;5087116;27;69866;-31
2022/08/28 01:30:55;;;;;;;;;;;;;;;30.14;67.72;100800.84;5085577;27;67307;-35
2022/08/28 01:33:27;;;;;;;;;;;;;;;30.17;69.41;100805.00;5085079;27;70115;-31
2022/08/28 01:35:59;;;;;;;;;;;;;;;30.27;69.88;100800.81;5086855;27;67605;-31
2022/08/28 01:38:31;;;;;;;;;;;;;;;30.26;71.04;100801.03;5043921;28;70446;-31
2022/08/28 01:41:03;;;;;;;;;;;;;;;30.21;71.28;100807.06;5075062;27;66490;-32
2022/08/28 01:43:38;;;;;;;;;;;;;;;30.24;72.63;100805.84;5073177;28;44201;-33
2022/08/28 01:46:11;;;;;;;;;;;;;;;30.32;74.23;100802.88;5077336;28;66270;-31
2022/08/28 01:48:43;;;;;;;;;;;;;;;30.40;72.41;100816.13;5081471;27;70638;-31
2022/08/28 01:51:15;;;;;;;;;;;;;;;30.50;69.90;100810.22;5082804;27;66482;-31
2022/08/28 01:53:53;;;;;;;;;;;;;;;30.56;69.91;100816.63;5075418;28;70636;-31
2022/08/28 01:56:25;;;;;;;;;;;;;;;30.61;70.44;100820.34;5068362;28;66322;-34
2022/08/28 01:58:59;;;;;;;;;;;;;;;30.66;70.07;100815.09;5081251;27;70896;-34
2022/08/28 02:01:32;;;;;;;;;;;;;;;30.73;70.53;100821.31;5045391;28;65497;-32
2022/08/28 02:04:04;;;;;;;;;;;;;;;30.78;69.87;100817.91;5079678;27;70872;-33
2022/08/28 02:06:36;;;;;;;;;;;;;;;30.82;69.52;100823.78;5062538;28;67671;-35
2022/08/28 02:09:10;;;;;;;;;;;;;;;30.88;68.94;100823.72;5062290;27;70683;-34
2022/08/28 02:11:44;;;;;;;;;;;;;;;30.92;69.22;100824.09;5080008;28;67350;-35
2022/08/28 02:14:16;;;;;;;;;;;;;;;30.97;68.49;100832.38;5063053;28;70809;-32
2022/08/28 02:16:48;;;;;;;;;;;;;;;31.02;68.44;100829.00;5080723;28;66773;-33
2022/08/28 02:19:20;;;;;;;;;;;;;;;31.05;68.06;100832.09;5077398;28;70301;-31
2022/08/28 02:21:52;;;;;;;;;;;;;;;31.08;68.17;100822.69;5081041;28;67793;-31
2022/08/28 02:24:24;;;;;;;;;;;;;;;31.11;67.83;100833.91;5080151;27;70691;-32
2022/08/28 02:26:56;;;;;;;;;;;;;;;31.14;67.81;100830.75;5059813;27;67467;-32
2022/08/28 02:29:28;;;;;;;;;;;;;;;31.16;67.29;100825.94;5071130;28;70657;-32
2022/08/28 02:32:00;;;;;;;;;;;;;;;31.21;67.19;100824.47;5081605;27;66416;-32
2022/08/28 02:34:34;;;;;;;;;;;;;;;31.23;67.37;100819.63;5082013;27;70580;-30
2022/08/28 02:37:10;;;;;;;;;;;;;;;31.27;66.98;100820.84;5072355;28;65430;-32
2022/08/28 02:39:43;;;;;;;;;;;;;;;31.28;67.39;100811.66;5079898;27;70121;-32
2022/08/28 02:42:15;;;;;;;;;;;;;;;31.32;66.65;100823.72;5083214;28;67374;-31
2022/08/28 02:44:48;;;;;;;;;;;;;;;31.34;67.12;100816.16;5080140;27;70525;-32
2022/08/28 02:47:20;;;;;;;;;;;;;;;31.36;66.64;100814.09;5075136;28;67061;-34
2022/08/28 02:49:52;;;;;;;;;;;;;;;31.38;66.56;100801.97;5063356;28;70430;-32
2022/08/28 02:52:25;;;;;;;;;;;;;;;31.41;66.52;100808.84;5081860;28;67186;-32
2022/08/28 02:54:57;;;;;;;;;;;;;;;31.43;66.26;100809.44;5060227;28;70943;-33
2022/08/28 02:57:29;;;;;;;;;;;;;;;31.45;66.09;100801.91;5064353;28;67281;-32
2022/08/28 03:00:03;;;;;;;;;;;;;;;31.47;65.75;100801.69;5081532;27;71216;-33
2022/08/28 03:02:35;;;;;;;;;;;;;;;31.50;65.81;100799.34;5067246;28;67015;-32
2022/08/28 03:05:08;;;;;;;;;;;;;;;31.52;66.13;100799.13;5072551;27;69857;-31
2022/08/28 03:07:41;;;;;;;;;;;;;;;31.53;65.82;100793.47;5081878;28;66297;-32
2022/08/28 03:10:14;;;;;;;;;;;;;;;31.39;66.48;100786.53;5078443;28;69934;-33
2022/08/28 03:12:45;;;;;;;;;;;;;;;31.24;67.31;100786.06;5080210;28;67227;-31
2022/08/28 03:15:18;;;;;;;;;;;;;;;31.10;68.22;100783.50;5081631;28;70645;-32
2022/08/28 03:17:50;;;;;;;;;;;;;;;31.03;68.68;100782.72;5081318;28;66448;-31
2022/08/28 03:20:22;;;;;;;;;;;;;;;31.00;68.82;100779.63;5080165;27;70221;-32
2022/08/28 03:25:44;;;;;;;;;;;;;;;30.95;69.68;100772.16;5080965;27;71210;-31
2022/08/28 03:28:16;;;;;;;;;;;;;;;30.93;69.28;100768.88;5046704;27;66417;-34
2022/08/28 03:30:49;;;;;;;;;;;;;;;30.91;68.76;100766.38;5080120;28;70723;-32
2022/08/28 03:33:21;;;;;;;;;;;;;;;30.89;68.32;100760.34;5082948;28;66595;-33
2022/08/28 03:35:54;;;;;;;;;;;;;;;30.91;68.49;100757.44;5077479;27;71061;-31
2022/08/28 03:38:26;;;;;;;;;;;;;;;30.91;68.67;100758.25;5062345;28;65870;-32
2022/08/28 03:40:58;;;;;;;;;;;;;;;30.96;69.94;100751.34;5081193;27;70905;-30
2022/08/28 03:43:31;;;;;;;;;;;;;;;31.01;69.93;100746.91;5077893;28;66557;-33
2022/08/28 03:46:04;;;;;;;;;;;;;;;31.07;70.09;100750.63;5079793;28;70224;-31
2022/08/28 03:48:37;;;;;;;;;;;;;;;31.14;69.47;100745.94;5079789;28;67189;-31
2022/08/28 03:51:15;;;;;;;;;;;;;;;31.20;69.22;100745.03;5079147;28;70856;-33
2022/08/28 03:53:47;;;;;;;;;;;;;;;31.27;69.02;100739.53;5079037;27;66273;-31
2022/08/28 03:56:21;;;;;;;;;;;;;;;31.34;68.09;100740.28;5080482;28;70778;-33
2022/08/28 03:58:54;;;;;;;;;;;;;;;31.39;68.28;100722.31;5052393;28;67572;-31
2022/08/28 04:01:27;;;;;;;;;;;;;;;31.43;68.09;100721.88;5079348;28;69553;-31
2022/08/28 04:03:59;;;;;;;;;;;;;;;31.47;67.96;100721.19;5077061;28;66986;-31
2022/08/28 04:06:31;;;;;;;;;;;;;;;31.46;67.57;100716.81;5060712;28;70681;-30
2022/08/28 04:09:05;;;;;;;;;;;;;;;31.46;67.39;100716.00;5079990;28;67248;-31
2022/08/28 04:11:37;;;;;;;;;;;;;;;31.36;67.69;100711.94;5070263;28;71028;-32
2022/08/28 04:14:10;;;;;;;;;;;;;;;31.33;67.35;100711.53;5080384;28;67692;-31
2022/08/28 04:16:42;;;;;;;;;;;;;;;31.30;67.69;100711.97;5062690;28;70878;-32
2022/08/28 04:19:14;;;;;;;;;;;;;;;31.29;67.56;100710.34;5061845;28;67467;-31
2022/08/28 04:21:46;;;;;;;;;;;;;;;31.26;67.42;100700.78;5078900;27;70740;-31
2022/08/28 04:24:18;;;;;;;;;;;;;;;31.29;67.53;100696.78;5078137;27;66442;-31
2022/08/28 04:26:50;;;;;;;;;;;;;;;31.34;67.19;100702.34;5078965;28;71020;-31
2022/08/28 04:29:22;;;;;;;;;;;;;;;31.34;66.72;100696.91;5070009;28;66923;-31
2022/08/28 04:31:56;;;;;;;;;;;;;;;31.34;67.31;100692.34;5060231;28;70899;-31
2022/08/28 04:34:28;;;;;;;;;;;;;;;31.34;67.07;100691.50;5041790;28;67197;-33
2022/08/28 04:37:00;;;;;;;;;;;;;;;31.34;67.33;100684.22;5059955;28;71017;-31
2022/08/28 04:39:33;;;;;;;;;;;;;;;31.34;67.78;100688.78;5079746;27;66677;-31
2022/08/28 04:42:05;;;;;;;;;;;;;;;31.35;67.15;100687.75;5072536;28;70639;-32
2022/08/28 04:44:37;;;;;;;;;;;;;;;31.36;67.75;100675.88;5079134;27;67309;-33
2022/08/28 04:47:09;;;;;;;;;;;;;;;31.34;68.82;100661.69;5080071;27;70821;-31
2022/08/28 04:49:41;;;;;;;;;;;;;;;31.33;69.09;100662.75;5083334;28;66499;-31
2022/08/28 04:52:13;;;;;;;;;;;;;;;31.33;69.54;100654.63;5063559;28;69552;-34
2022/08/28 04:54:45;;;;;;;;;;;;;;;31.27;69.42;100648.22;5082435;28;67104;-32
2022/08/28 04:57:16;;;;;;;;;;;;;;;31.28;69.65;100646.34;5080649;28;70641;-32
2022/08/28 04:59:49;;;;;;;;;;;;;;;31.25;69.77;100642.19;5082287;27;66715;-31
2022/08/28 05:02:20;;;;;;;;;;;;;;;31.28;69.87;100641.75;5065140;28;70595;-32
2022/08/28 05:04:53;;;;;;;;;;;;;;;31.27;70.09;100639.28;5080320;28;67257;-31
2022/08/28 05:07:25;;;;;;;;;;;;;;;31.27;70.55;100620.31;5082310;27;71230;-32
2022/08/28 05:09:57;;;;;;;;;;;;;;;31.12;68.39;100624.25;5082166;28;65790;-32
2022/08/28 05:12:28;;;;;;;;;;;;;;;31.02;67.29;100626.66;5075327;28;70466;-33
2022/08/28 05:15:01;;;;;;;;;;;;;;;30.93;66.11;100614.50;5080787;28;66259;-30
2022/08/28 05:17:33;;;;;;;;;;;;;;;30.85;64.75;100617.50;5082590;28;70279;-31
2022/08/28 05:20:05;;;;;;;;;;;;;;;30.76;64.04;100606.13;5052829;28;66988;-31
2022/08/28 05:22:37;;;;;;;;;;;;;;;30.70;63.26;100594.31;5080085;28;70227;-31
2022/08/28 05:25:09;;;;;;;;;;;;;;;30.66;62.16;100603.09;5080391;28;67387;-31
2022/08/28 05:27:41;;;;;;;;;;;;;;;30.59;61.79;100592.34;5063616;28;71201;-31
2022/08/28 05:30:13;;;;;;;;;;;;;;;30.60;61.08;100582.34;5081566;28;67008;-32
2022/08/28 05:32:45;;;;;;;;;;;;;;;30.59;60.18;100581.53;5079150;28;70809;-32
2022/08/28 05:35:17;;;;;;;;;;;;;;;30.58;59.22;100569.03;5078527;28;66940;-31
2022/08/28 05:37:51;;;;;;;;;;;;;;;30.61;59.05;100571.28;5078255;27;71009;-31
2022/08/28 05:40:23;;;;;;;;;;;;;;;30.60;57.93;100560.69;5078932;27;66846;-31
2022/08/28 05:42:55;;;;;;;;;;;;;;;30.60;57.39;100555.28;5080728;28;70672;-34
2022/08/28 05:45:27;;;;;;;;;;;;;;;30.61;57.31;100552.34;5078849;28;66520;-35
2022/08/28 05:47:58;;;;;;;;;;;;;;;30.66;56.97;100548.94;5081084;28;70047;-31
2022/08/28 05:50:30;;;;;;;;;;;;;;;30.64;56.45;100541.03;5061993;28;67012;-31
2022/08/28 05:53:02;;;;;;;;;;;;;;;30.67;56.10;100528.94;5081806;28;69950;-31
2022/08/28 05:55:38;;;;;;;;;;;;;;;30.66;55.73;100517.28;5066081;28;67011;-31
2022/08/28 05:58:30;;;;;;;;;;;;;;;30.68;55.02;100522.50;5061761;27;70927;-31
2022/08/28 06:01:04;;;;;;;;;;;;;;;30.68;54.76;100512.47;5081086;28;67471;-31
2022/08/28 06:03:37;;;;;;;;;;;;;;;30.68;54.39;100498.94;5082292;28;71069;-31
2022/08/28 06:06:10;;;;;;;;;;;;;;;30.69;53.72;100497.88;5081518;28;67511;-31
2022/08/28 06:08:42;;;;;;;;;;;;;;;30.71;53.70;100498.47;5080287;27;68793;-31
2022/08/28 06:11:28;;;;;;;;;;;;;;;30.72;53.40;100485.78;5063408;28;66276;-31
2022/08/28 06:14:02;;;;;;;;;;;;;;;30.76;52.80;100478.00;5076764;28;70097;-31
2022/08/28 06:16:34;;;;;;;;;;;;;;;30.76;52.42;100473.44;5084413;27;66328;-30
2022/08/28 06:19:08;;;;;;;;;;;;;;;30.73;51.88;100463.06;5059203;28;70502;-32
2022/08/28 06:21:40;;;;;;;;;;;;;;;30.77;51.66;100463.44;5079347;28;66503;-31
2022/08/28 06:24:12;;;;;;;;;;;;;;;30.79;51.02;100455.91;5080950;27;70446;-30
2022/08/28 06:26:44;;;;;;;;;;;;;;;30.81;51.12;100451.09;5079623;28;67123;-31
2022/08/28 06:29:18;;;;;;;;;;;;;;;30.77;50.27;100439.88;5082373;28;70896;-31
2022/08/28 06:31:54;;;;;;;;;;;;;;;30.77;50.31;100430.94;5081796;28;67765;-31
2022/08/28 06:34:26;;;;;;;;;;;;;;;30.78;50.20;100427.97;5082626;28;70975;-30
2022/08/28 06:36:59;;;;;;;;;;;;;;;30.80;50.00;100419.69;5081838;27;67776;-30
2022/08/28 06:39:31;;;;;;;;;;;;;;;30.80;49.35;100414.25;5053310;27;70221;-33
2022/08/28 06:42:04;;;;;;;;;;;;;;;30.82;49.83;100412.97;5082122;28;67201;-32
2022/08/28 06:44:37;;;;;;;;;;;;;;;30.85;49.49;100400.84;5080845;27;69983;-31
2022/08/28 06:47:09;;;;;;;;;;;;;;;30.86;49.13;100397.91;5080313;27;67649;-32
2022/08/28 06:49:41;;;;;;;;;;;;;;;30.89;49.41;100391.19;5075771;28;70347;-32
2022/08/28 06:52:13;;;;;;;;;;;;;;;30.92;49.23;100388.03;5077806;28;67021;-32
2022/08/28 06:54:45;;;;;;;;;;;;;;;30.93;48.60;100378.84;5080606;28;70624;-32
2022/08/28 06:57:25;;;;;;;;;;;;;;;30.94;48.51;100375.09;5078544;28;67452;-31
2022/08/28 06:59:57;;;;;;;;;;;;;;;30.95;48.07;100365.88;5081708;27;70773;-33
2022/08/28 07:02:29;;;;;;;;;;;;;;;30.96;48.61;100362.13;5081753;28;66511;-31
2022/08/28 07:05:02;;;;;;;;;;;;;;;31.00;48.85;100360.59;5062662;28;71363;-31
2022/08/28 07:07:34;;;;;;;;;;;;;;;31.03;49.02;100354.72;5079568;28;66998;-31
2022/08/28 07:10:06;;;;;;;;;;;;;;;31.06;48.44;100343.41;5050875;28;70631;-33
2022/08/28 07:12:38;;;;;;;;;;;;;;;31.08;48.42;100329.63;5079358;27;66425;-31
2022/08/28 07:15:10;;;;;;;;;;;;;;;31.11;48.45;100319.16;5079272;27;70685;-31
2022/08/28 07:17:42;;;;;;;;;;;;;;;31.12;48.51;100320.81;5057045;28;65219;-31
2022/08/28 07:20:15;;;;;;;;;;;;;;;31.12;48.16;100320.81;5077409;28;70170;-32
2022/08/28 07:22:47;;;;;;;;;;;;;;;31.12;48.25;100314.56;5080621;28;66285;-32
2022/08/28 07:25:26;;;;;;;;;;;;;;;31.13;47.38;100313.50;5079188;28;71174;-31
2022/08/28 07:27:58;;;;;;;;;;;;;;;31.21;47.79;100306.91;5078419;27;66292;-33
2022/08/28 07:30:31;;;;;;;;;;;;;;;31.31;47.56;100299.00;5077064;28;70272;-33
2022/08/28 07:33:03;;;;;;;;;;;;;;;31.34;48.32;100291.25;5075249;28;66499;-32
2022/08/28 07:35:36;;;;;;;;;;;;;;;31.37;47.25;100284.53;5078041;28;70961;-32
2022/08/28 07:38:07;;;;;;;;;;;;;;;31.60;49.32;100295.34;5078344;28;66350;-33
2022/08/28 07:40:39;;;;;;;;;;;;;;;31.81;51.53;100295.75;5080919;27;70945;-33
2022/08/28 07:46:04;;;;;;;;;;;;;;;32.14;54.48;100297.78;5077254;27;71556;-32
2022/08/28 07:48:37;;;;;;;;;;;;;;;32.26;54.84;100287.72;5050140;28;66462;-33
2022/08/28 07:51:09;;;;;;;;;;;;;;;32.36;55.27;100270.75;5057140;28;70584;-32
2022/08/28 07:53:41;;;;;;;;;;;;;;;32.45;55.50;100279.31;5078354;28;66551;-33
2022/08/28 07:56:13;;;;;;;;;;;;;;;32.53;55.42;100280.84;5081848;27;70903;-33
2022/08/28 07:58:45;;;;;;;;;;;;;;;32.37;58.76;100277.81;5079109;27;66209;-34
2022/08/28 08:01:17;;;;;;;;;;;;;;;32.26;59.92;100281.44;5079616;28;70890;-34
2022/08/28 08:03:50;;;;;;;;;;;;;;;32.21;60.53;100278.66;5078777;28;67099;-33
2022/08/28 08:06:30;;;;;;;;;;;;;;;32.15;60.97;100279.59;5074752;27;68227;-32
2022/08/28 08:09:04;;;;;;;;;;;;;;;32.13;61.22;100268.19;5076378;28;66683;-33
2022/08/28 08:11:36;;;;;;;;;;;;;;;32.13;61.74;100262.75;5077300;28;70864;-32
2022/08/28 08:14:09;;;;;;;;;;;;;;;32.12;61.83;100270.06;5074674;28;67261;-31
2022/08/28 08:16:46;;;;;;;;;;;;;;;32.11;62.37;100267.59;5076915;28;71214;-32
2022/08/28 08:19:19;;;;;;;;;;;;;;;32.10;62.29;100265.97;5078088;28;67004;-32
2022/08/28 08:21:52;;;;;;;;;;;;;;;32.11;62.43;100273.03;5075872;27;69972;-33
2022/08/28 08:24:25;;;;;;;;;;;;;;;32.13;62.76;100292.59;5076311;28;66565;-32
2022/08/28 08:26:59;;;;;;;;;;;;;;;32.12;62.64;100296.38;5079980;28;70295;-33
2022/08/28 08:29:34;;;;;;;;;;;;;;;32.14;63.12;100326.81;5060514;28;66678;-34
2022/08/28 08:32:09;;;;;;;;;;;;;;;32.16;63.97;100341.78;5078014;28;70124;-31
2022/08/28 08:34:44;;;;;;;;;;;;;;;32.16;64.93;100336.34;5079117;28;66514;-33
2022/08/28 08:37:16;;;;;;;;;;;;;;;32.17;65.20;100339.88;5060738;28;69671;-33
2022/08/28 08:39:49;;;;;;;;;;;;;;;32.15;65.49;100339.28;5076733;27;67110;-33
2022/08/28 08:42:26;;;;;;;;;;;;;;;32.16;65.79;100347.22;5076010;28;70830;-33
2022/08/28 08:45:03;;;;;;;;;;;;;;;32.14;66.04;100351.22;5076998;28;67416;-32
2022/08/28 08:47:38;;;;;;;;;;;;;;;32.15;65.97;100344.72;5076746;28;70059;-33
2022/08/28 08:50:22;;;;;;;;;;;;;;;32.15;66.13;100344.72;5077088;28;66799;-33
2022/08/28 08:53:05;;;;;;;;;;;;;;;32.12;66.08;100345.22;5078606;28;69046;-33
2022/08/28 08:55:45;;;;;;;;;;;;;;;32.17;66.07;100353.44;5078989;28;67505;-32
2022/08/28 08:58:24;;;;;;;;;;;;;;;32.14;66.22;100362.91;5058347;28;70674;-34
2022/08/28 09:01:08;;;;;;;;;;;;;;;32.18;66.02;100374.09;5079388;28;66779;-32
2022/08/28 09:03:56;;;;;;;;;;;;;;;32.16;66.69;100379.78;5076222;28;70267;-33
2022/08/28 09:06:40;;;;;;;;;;;;;;;32.12;66.77;100372.34;5062448;28;67315;-32
2022/08/28 09:09:18;;;;;;;;;;;;;;;32.11;67.13;100386.97;5081220;28;70372;-33
2022/08/28 09:11:49;;;;;;;;;;;;;;;32.09;67.50;100392.63;5084344;27;67011;-32
2022/08/28 09:14:32;;;;;;;;;;;;;;;32.08;67.40;100392.91;5081917;28;70219;-32
2022/08/28 09:17:05;;;;;;;;;;;;;;;32.04;67.50;100392.56;5083327;28;66272;-31
2022/08/28 09:19:37;;;;;;;;;;;;;;;32.00;67.73;100403.03;5063398;28;70212;-32
2022/08/28 09:22:09;;;;;;;;;;;;;;;31.98;67.89;100388.91;5066007;28;67240;-31
2022/08/28 09:24:41;;;;;;;;;;;;;;;31.94;67.86;100376.88;5083322;28;70841;-33
2022/08/28 09:27:25;;;;;;;;;;;;;;;31.89;67.80;100363.19;5082099;27;67115;-34
2022/08/28 09:30:03;;;;;;;;;;;;;;;31.85;68.30;100362.03;5057756;28;70241;-34
2022/08/28 09:32:43;;;;;;;;;;;;;;;31.89;68.16;100368.59;5080513;28;66403;-32
2022/08/28 09:35:18;;;;;;;;;;;;;;;31.97;67.87;100389.97;5087328;27;69628;-32
2022/08/28 09:37:50;;;;;;;;;;;;;;;31.95;68.28;100383.94;5063733;27;67003;-35
2022/08/28 09:40:21;;;;;;;;;;;;;;;31.94;68.71;100374.16;5063314;28;70654;-33
2022/08/28 09:46:01;;;;;;;;;;;;;;;31.90;68.96;100370.28;5083537;28;70768;-34
2022/08/28 09:48:34;;;;;;;;;;;;;;;31.86;69.00;100369.09;5079653;28;66997;-33
2022/08/28 09:51:26;;;;;;;;;;;;;;;31.87;69.22;100364.47;5068521;28;70910;-35
2022/08/28 09:54:07;;;;;;;;;;;;;;;31.99;68.23;100358.00;5071809;28;66662;-37
2022/08/28 09:56:40;;;;;;;;;;;;;;;32.06;67.47;100360.56;5083001;28;70230;-33
2022/08/28 09:59:14;;;;;;;;;;;;;;;32.13;67.44;100365.88;5082345;27;66250;-34
2022/08/28 10:01:48;;;;;;;;;;;;;;;32.18;66.91;100368.66;5065476;28;71021;-34
2022/08/28 10:04:40;;;;;;;;;;;;;;;32.20;66.78;100374.69;5083028;28;67430;-33
2022/08/28 10:07:30;;;;;;;;;;;;;;;32.22;66.67;100377.97;5082553;28;70850;-33
2022/08/28 10:10:05;;;;;;;;;;;;;;;32.24;66.12;100386.72;5053848;28;66121;-35
2022/08/28 10:12:59;;;;;;;;;;;;;;;32.26;66.26;100390.00;5080655;27;70027;-33
2022/08/28 10:15:31;;;;;;;;;;;;;;;32.28;65.63;100398.72;5082986;27;67108;-34
2022/08/28 10:18:12;;;;;;;;;;;;;;;32.28;65.73;100394.09;5088347;27;70815;-36
2022/08/28 10:20:48;;;;;;;;;;;;;;;32.28;65.91;100396.00;5080907;28;67345;-34
2022/08/28 10:23:30;;;;;;;;;;;;;;;32.27;65.76;100418.78;5082941;28;70415;-36
2022/08/28 10:26:13;;;;;;;;;;;;;;;32.25;65.77;100431.78;5062608;28;66173;-34
2022/08/28 10:28:51;;;;;;;;;;;;;;;32.25;65.28;100437.19;5083373;27;70991;-34
2022/08/28 10:31:30;;;;;;;;;;;;;;;32.24;65.62;100447.25;5080127;27;67216;-33
2022/08/28 10:34:09;;;;;;;;;;;;;;;32.26;65.50;100450.53;5081209;27;70868;-33
2022/08/28 10:36:46;;;;;;;;;;;;;;;32.27;65.37;100445.94;5081255;27;66710;-33
2022/08/28 10:39:36;;;;;;;;;;;;;;;32.27;65.55;100437.78;5081528;27;71125;-34
2022/08/28 10:42:09;;;;;;;;;;;;;;;32.26;65.31;100434.25;5071264;27;67451;-36
2022/08/28 10:44:51;;;;;;;;;;;;;;;32.26;65.80;100436.13;5080850;27;70755;-33
2022/08/28 10:47:24;;;;;;;;;;;;;;;32.24;65.57;100439.09;5073394;28;67385;-33
2022/08/28 10:50:01;;;;;;;;;;;;;;;32.24;65.66;100446.41;5082098;27;70704;-34
2022/08/28 10:52:48;;;;;;;;;;;;;;;32.23;66.10;100433.91;5082639;28;66980;-34
2022/08/28 10:55:28;;;;;;;;;;;;;;;32.24;65.73;100435.56;5081349;28;70390;-33
2022/08/28 10:58:03;;;;;;;;;;;;;;;32.23;65.67;100433.91;5080893;28;67332;-33
2022/08/28 11:00:59;;;;;;;;;;;;;;;32.22;65.56;100430.34;5077921;28;70623;-33
2022/08/28 11:03:39;;;;;;;;;;;;;;;32.05;66.89;100427.56;5077417;27;67618;-36
2022/08/28 11:06:22;;;;;;;;;;;;;;;31.90;68.07;100434.50;5061393;28;70553;-33
2022/08/28 11:08:57;;;;;;;;;;;;;;;31.69;69.08;100439.50;5078503;28;67460;-32
2022/08/28 11:11:46;;;;;;;;;;;;;;;31.59;69.98;100439.25;5079388;28;70878;-33
2022/08/28 11:14:30;;;;;;;;;;;;;;;31.52;70.16;100450.22;5035424;28;67210;-33
2022/08/28 11:17:05;;;;;;;;;;;;;;;31.49;70.66;100458.81;5081100;28;69767;-33
2022/08/28 11:19:43;;;;;;;;;;;;;;;31.46;70.93;100466.63;5079374;28;66162;-33
2022/08/28 11:22:24;;;;;;;;;;;;;;;31.41;71.27;100475.44;5079733;28;70802;-33
2022/08/28 11:25:00;;;;;;;;;;;;;;;31.35;71.64;100493.44;5061298;28;66317;-34
2022/08/28 11:27:38;;;;;;;;;;;;;;;31.32;71.75;100503.91;5071820;28;70909;-34
2022/08/28 11:30:10;;;;;;;;;;;;;;;31.34;71.67;100515.31;5076684;28;67194;-33
2022/08/28 11:32:51;;;;;;;;;;;;;;;31.32;72.11;100521.00;5054770;28;70147;-34
2022/08/28 11:35:26;;;;;;;;;;;;;;;31.42;71.04;100530.47;5077849;28;67505;-35
2022/08/28 11:37:58;;;;;;;;;;;;;;;31.29;71.36;100543.13;5080725;27;70265;-33
2022/08/28 11:40:31;;;;;;;;;;;;;;;31.12;72.32;100551.09;5052109;28;67032;-32
2022/08/28 11:43:14;;;;;;;;;;;;;;;31.15;71.85;100563.38;5076242;28;70320;-33
2022/08/28 11:45:49;;;;;;;;;;;;;;;31.19;72.44;100569.13;5076704;28;67265;-34
2022/08/28 11:48:21;;;;;;;;;;;;;;;31.14;72.54;100565.22;5056780;28;69726;-34
2022/08/28 11:51:03;;;;;;;;;;;;;;;31.16;72.70;100571.25;5078148;28;67580;-32
2022/08/28 11:53:56;;;;;;;;;;;;;;;31.20;72.62;100571.59;5077455;28;71132;-31
2022/08/28 11:56:47;;;;;;;;;;;;;;;31.19;73.08;100579.97;5078026;27;66340;-33
2022/08/28 11:59:23;;;;;;;;;;;;;;;31.17;72.84;100582.91;5078014;28;70578;-32
2022/08/28 12:02:23;;;;;;;;;;;;;;;31.13;72.89;100587.13;5077140;28;67311;-32
2022/08/28 12:04:55;;;;;;;;;;;;;;;31.12;73.00;100591.75;5077482;28;70149;-33
2022/08/28 12:07:33;;;;;;;;;;;;;;;31.14;72.99;100595.03;5049624;28;67430;-31
2022/08/28 12:10:20;;;;;;;;;;;;;;;31.17;72.83;100599.16;5076684;28;71509;-31
2022/08/28 12:12:53;;;;;;;;;;;;;;;31.21;72.89;100605.78;5078094;28;68057;-31
2022/08/28 12:15:28;;;;;;;;;;;;;;;31.22;72.50;100606.63;5079870;28;70304;-32
2022/08/28 12:18:00;;;;;;;;;;;;;;;31.27;72.55;100612.19;5078805;28;66748;-31
2022/08/28 12:20:34;;;;;;;;;;;;;;;31.25;72.41;100612.38;5079583;28;70890;-31
2022/08/28 12:23:25;;;;;;;;;;;;;;;31.27;72.01;100609.47;5079719;28;66974;-31
2022/08/28 12:26:00;;;;;;;;;;;;;;;31.30;72.16;100611.72;5060195;28;70753;-33
2022/08/28 12:28:47;;;;;;;;;;;;;;;31.28;71.99;100617.34;5077407;28;67277;-32
2022/08/28 12:34:27;;;;;;;;;;;;;;;31.28;72.76;100624.66;5075211;28;66988;-32
2022/08/28 12:37:00;;;;;;;;;;;;;;;31.27;73.64;100623.00;5064850;27;70769;-39
2022/08/28 12:39:32;;;;;;;;;;;;;;;31.26;73.52;100632.19;5075565;27;66214;-33
2022/08/28 12:42:13;;;;;;;;;;;;;;;31.25;73.47;100639.50;5075719;28;70820;-33
2022/08/28 12:44:46;;;;;;;;;;;;;;;31.25;72.35;100641.38;5074057;28;66725;-32
2022/08/28 12:47:24;;;;;;;;;;;;;;;31.12;70.70;100642.38;5076022;28;70706;-32
2022/08/28 12:49:56;;;;;;;;;;;;;;;31.01;69.63;100643.13;5076391;28;66622;-32
2022/08/28 12:52:28;;;;;;;;;;;;;;;30.95;68.89;100655.69;5075176;28;70331;-32
2022/08/28 12:55:01;;;;;;;;;;;;;;;30.89;67.95;100662.03;5076639;28;66969;-32
2022/08/28 12:57:33;;;;;;;;;;;;;;;30.79;66.96;100667.13;5076813;28;69993;-33
2022/08/28 13:00:09;;;;;;;;;;;;;;;30.72;66.26;100678.84;5059243;28;67673;-31
2022/08/28 13:02:42;;;;;;;;;;;;;;;30.67;65.88;100681.41;5077632;28;70946;-30
2022/08/28 13:05:28;;;;;;;;;;;;;;;30.63;65.26;100674.75;5076123;28;66727;-31
2022/08/28 13:08:04;;;;;;;;;;;;;;;30.58;64.84;100666.47;5074853;28;70654;-31
2022/08/28 13:10:38;;;;;;;;;;;;;;;30.56;64.32;100656.94;5081282;27;67400;-32
2022/08/28 13:13:18;;;;;;;;;;;;;;;30.56;64.06;100656.94;5056471;28;70799;-32
2022/08/28 13:16:01;;;;;;;;;;;;;;;30.51;63.66;100654.91;5081283;28;67036;-33
2022/08/28 13:18:54;;;;;;;;;;;;;;;30.46;62.77;100658.28;5079597;28;70825;-32
2022/08/28 13:21:29;;;;;;;;;;;;;;;30.43;62.18;100652.50;5039517;28;67755;-32
2022/08/28 13:24:21;;;;;;;;;;;;;;;30.40;61.90;100655.66;5079407;28;70577;-32
2022/08/28 13:27:05;;;;;;;;;;;;;;;30.39;61.22;100657.50;5080680;28;66478;-33
2022/08/28 13:29:47;;;;;;;;;;;;;;;30.38;60.65;100657.75;5080335;28;70047;-32